sensor_id;sensor_type;location;lat;lon;timestamp;P1;durP1;ratioP1;P2;durP2;ratioP2
4642;SDS011;2334;48.710;9.622;2022-11-04T00:00:52;8.10;;;5.10;;
4642;SDS011;2334;48.710;9.622;2022-11-04T00:03:19;7.90;;;4.70;;
4642;SDS011;2334;48.710;9.622;2022-11-04T00:05:46;7.10;;;4.33;;
4642;SDS011;2334;48.710;9.622;2022-11-04T00:08:12;7.73;;;4.23;;
4642;SDS011;2334;48.710;9.622;2022-11-04T00:10:53;6.73;;;3.60;;
4642;SDS011;2334;48.710;9.622;2022-11-04T00:13:38;5.17;;;3.80;;
4642;SDS011;2334;48.710;9.622;2022-11-04T00:16:05;4.97;;;4.00;;
4642;SDS011;2334;48.710;9.622;2022-11-04T00:18:50;5.50;;;3.30;;
4642;SDS011;2334;48.710;9.622;2022-11-04T00:21:16;4.00;;;3.50;;
4642;SDS011;2334;48.710;9.622;2022-11-04T00:24:01;6.10;;;3.60;;
4642;SDS011;2334;48.710;9.622;2022-11-04T00:26:46;5.53;;;3.30;;
4642;SDS011;2334;48.710;9.622;2022-11-04T00:29:31;7.13;;;3.70;;
4642;SDS011;2334;48.710;9.622;2022-11-04T00:31:57;4.27;;;2.70;;
4642;SDS011;2334;48.710;9.622;2022-11-04T00:34:42;5.83;;;3.00;;
4642;SDS011;2334;48.710;9.622;2022-11-04T00:37:09;5.17;;;3.03;;
4642;SDS011;2334;48.710;9.622;2022-11-04T00:39:36;9.53;;;3.17;;
4642;SDS011;2334;48.710;9.622;2022-11-04T00:42:04;3.93;;;2.73;;
4642;SDS011;2334;48.710;9.622;2022-11-04T00:44:31;5.57;;;3.87;;
4642;SDS011;2334;48.710;9.622;2022-11-04T00:46:58;3.63;;;3.33;;
4642;SDS011;2334;48.710;9.622;2022-11-04T00:49:26;4.60;;;3.40;;
4642;SDS011;2334;48.710;9.622;2022-11-04T00:51:53;5.27;;;2.70;;
4642;SDS011;2334;48.710;9.622;2022-11-04T00:54:20;8.33;;;3.40;;
4642;SDS011;2334;48.710;9.622;2022-11-04T00:56:47;4.33;;;3.57;;
4642;SDS011;2334;48.710;9.622;2022-11-04T00:59:15;6.83;;;3.07;;
4642;SDS011;2334;48.710;9.622;2022-11-04T01:01:42;4.17;;;3.10;;
4642;SDS011;2334;48.710;9.622;2022-11-04T01:04:09;6.50;;;2.57;;
4642;SDS011;2334;48.710;9.622;2022-11-04T01:06:36;4.77;;;2.70;;
4642;SDS011;2334;48.710;9.622;2022-11-04T01:09:04;8.27;;;3.63;;
4642;SDS011;2334;48.710;9.622;2022-11-04T01:11:33;6.97;;;3.40;;
4642;SDS011;2334;48.710;9.622;2022-11-04T01:14:00;5.37;;;3.50;;
4642;SDS011;2334;48.710;9.622;2022-11-04T01:16:29;9.07;;;4.03;;
4642;SDS011;2334;48.710;9.622;2022-11-04T01:18:56;3.43;;;2.87;;
4642;SDS011;2334;48.710;9.622;2022-11-04T01:21:23;5.00;;;3.27;;
4642;SDS011;2334;48.710;9.622;2022-11-04T01:23:50;5.00;;;3.80;;
4642;SDS011;2334;48.710;9.622;2022-11-04T01:26:17;5.57;;;3.60;;
4642;SDS011;2334;48.710;9.622;2022-11-04T01:28:45;4.13;;;3.27;;
4642;SDS011;2334;48.710;9.622;2022-11-04T01:31:13;8.60;;;3.67;;
4642;SDS011;2334;48.710;9.622;2022-11-04T01:33:43;3.20;;;2.67;;
4642;SDS011;2334;48.710;9.622;2022-11-04T01:36:10;5.37;;;4.53;;
4642;SDS011;2334;48.710;9.622;2022-11-04T01:38:37;4.80;;;3.53;;
4642;SDS011;2334;48.710;9.622;2022-11-04T01:41:04;8.73;;;3.00;;
4642;SDS011;2334;48.710;9.622;2022-11-04T01:43:41;5.67;;;3.80;;
4642;SDS011;2334;48.710;9.622;2022-11-04T01:46:10;7.07;;;2.97;;
4642;SDS011;2334;48.710;9.622;2022-11-04T01:48:46;3.97;;;3.40;;
4642;SDS011;2334;48.710;9.622;2022-11-04T01:51:14;6.67;;;3.67;;
4642;SDS011;2334;48.710;9.622;2022-11-04T01:53:41;4.50;;;3.50;;
4642;SDS011;2334;48.710;9.622;2022-11-04T01:56:10;4.10;;;3.23;;
4642;SDS011;2334;48.710;9.622;2022-11-04T01:58:40;6.30;;;3.53;;
4642;SDS011;2334;48.710;9.622;2022-11-04T02:01:09;6.20;;;3.47;;
4642;SDS011;2334;48.710;9.622;2022-11-04T02:03:38;9.17;;;4.23;;
4642;SDS011;2334;48.710;9.622;2022-11-04T02:06:13;3.37;;;2.70;;
4642;SDS011;2334;48.710;9.622;2022-11-04T02:08:41;6.13;;;3.47;;
4642;SDS011;2334;48.710;9.622;2022-11-04T02:11:08;2.87;;;2.60;;
4642;SDS011;2334;48.710;9.622;2022-11-04T02:13:55;13.13;;;2.80;;
4642;SDS011;2334;48.710;9.622;2022-11-04T02:16:22;3.00;;;2.70;;
4642;SDS011;2334;48.710;9.622;2022-11-04T02:18:58;2.77;;;1.93;;
4642;SDS011;2334;48.710;9.622;2022-11-04T02:24:40;3.03;;;2.60;;
4642;SDS011;2334;48.710;9.622;2022-11-04T02:27:18;1.80;;;1.70;;
4642;SDS011;2334;48.710;9.622;2022-11-04T02:30:04;4.07;;;2.20;;
4642;SDS011;2334;48.710;9.622;2022-11-04T02:32:36;3.23;;;2.10;;
4642;SDS011;2334;48.710;9.622;2022-11-04T02:35:14;2.13;;;1.87;;
4642;SDS011;2334;48.710;9.622;2022-11-04T02:37:49;3.40;;;2.37;;
4642;SDS011;2334;48.710;9.622;2022-11-04T02:40:23;2.33;;;1.90;;
4642;SDS011;2334;48.710;9.622;2022-11-04T02:42:57;2.67;;;2.43;;
4642;SDS011;2334;48.710;9.622;2022-11-04T02:45:31;2.20;;;1.70;;
4642;SDS011;2334;48.710;9.622;2022-11-04T02:48:04;2.10;;;2.00;;
4642;SDS011;2334;48.710;9.622;2022-11-04T02:50:38;1.80;;;1.50;;
4642;SDS011;2334;48.710;9.622;2022-11-04T02:53:10;2.93;;;1.93;;
4642;SDS011;2334;48.710;9.622;2022-11-04T02:55:41;2.73;;;1.90;;
4642;SDS011;2334;48.710;9.622;2022-11-04T02:58:12;2.83;;;2.03;;
4642;SDS011;2334;48.710;9.622;2022-11-04T03:00:42;2.20;;;1.77;;
4642;SDS011;2334;48.710;9.622;2022-11-04T03:03:13;7.00;;;2.00;;
4642;SDS011;2334;48.710;9.622;2022-11-04T03:05:43;1.77;;;1.63;;
4642;SDS011;2334;48.710;9.622;2022-11-04T03:08:15;3.73;;;1.97;;
4642;SDS011;2334;48.710;9.622;2022-11-04T03:10:46;1.77;;;1.50;;
4642;SDS011;2334;48.710;9.622;2022-11-04T03:13:17;2.20;;;1.77;;
4642;SDS011;2334;48.710;9.622;2022-11-04T03:15:49;1.67;;;1.57;;
4642;SDS011;2334;48.710;9.622;2022-11-04T03:18:20;1.80;;;1.57;;
4642;SDS011;2334;48.710;9.622;2022-11-04T03:20:49;3.90;;;2.10;;
4642;SDS011;2334;48.710;9.622;2022-11-04T03:23:18;2.30;;;1.90;;
4642;SDS011;2334;48.710;9.622;2022-11-04T03:25:45;1.60;;;1.40;;
4642;SDS011;2334;48.710;9.622;2022-11-04T03:28:21;1.83;;;1.30;;
4642;SDS011;2334;48.710;9.622;2022-11-04T03:30:54;2.83;;;1.63;;
4642;SDS011;2334;48.710;9.622;2022-11-04T03:33:25;1.70;;;1.30;;
4642;SDS011;2334;48.710;9.622;2022-11-04T03:35:58;2.50;;;1.40;;
4642;SDS011;2334;48.710;9.622;2022-11-04T03:38:27;1.77;;;1.67;;
4642;SDS011;2334;48.710;9.622;2022-11-04T03:40:54;1.50;;;1.40;;
4642;SDS011;2334;48.710;9.622;2022-11-04T03:43:22;1.63;;;1.53;;
4642;SDS011;2334;48.710;9.622;2022-11-04T03:45:52;2.00;;;1.80;;
4642;SDS011;2334;48.710;9.622;2022-11-04T03:48:21;2.33;;;2.13;;
4642;SDS011;2334;48.710;9.622;2022-11-04T03:50:49;1.90;;;1.80;;
4642;SDS011;2334;48.710;9.622;2022-11-04T03:53:16;1.40;;;1.30;;
4642;SDS011;2334;48.710;9.622;2022-11-04T03:55:49;2.90;;;1.60;;
4642;SDS011;2334;48.710;9.622;2022-11-04T03:58:29;2.07;;;1.77;;
4642;SDS011;2334;48.710;9.622;2022-11-04T04:01:04;1.07;;;1.07;;
4642;SDS011;2334;48.710;9.622;2022-11-04T04:03:42;1.30;;;1.20;;
4642;SDS011;2334;48.710;9.622;2022-11-04T04:06:17;1.70;;;1.57;;
4642;SDS011;2334;48.710;9.622;2022-11-04T04:08:48;4.20;;;1.20;;
4642;SDS011;2334;48.710;9.622;2022-11-04T04:11:20;1.20;;;1.10;;
4642;SDS011;2334;48.710;9.622;2022-11-04T04:13:55;1.23;;;1.13;;
4642;SDS011;2334;48.710;9.622;2022-11-04T04:16:32;1.67;;;1.27;;
4642;SDS011;2334;48.710;9.622;2022-11-04T04:19:04;1.80;;;1.17;;
4642;SDS011;2334;48.710;9.622;2022-11-04T04:21:36;1.70;;;1.60;;
4642;SDS011;2334;48.710;9.622;2022-11-04T04:24:08;1.50;;;1.40;;
4642;SDS011;2334;48.710;9.622;2022-11-04T04:26:54;1.70;;;1.50;;
4642;SDS011;2334;48.710;9.622;2022-11-04T04:29:40;2.13;;;1.50;;
4642;SDS011;2334;48.710;9.622;2022-11-04T04:32:11;1.47;;;1.30;;
4642;SDS011;2334;48.710;9.622;2022-11-04T04:34:39;3.27;;;1.80;;
4642;SDS011;2334;48.710;9.622;2022-11-04T04:37:06;4.00;;;1.63;;
4642;SDS011;2334;48.710;9.622;2022-11-04T04:39:38;3.47;;;1.60;;
4642;SDS011;2334;48.710;9.622;2022-11-04T04:42:29;2.90;;;1.37;;
4642;SDS011;2334;48.710;9.622;2022-11-04T04:45:18;1.43;;;1.10;;
4642;SDS011;2334;48.710;9.622;2022-11-04T04:47:49;2.10;;;1.50;;
4642;SDS011;2334;48.710;9.622;2022-11-04T04:50:18;6.63;;;2.47;;
4642;SDS011;2334;48.710;9.622;2022-11-04T04:52:47;1.97;;;1.60;;
4642;SDS011;2334;48.710;9.622;2022-11-04T04:55:16;4.83;;;2.03;;
4642;SDS011;2334;48.710;9.622;2022-11-04T04:57:43;3.23;;;1.90;;
4642;SDS011;2334;48.710;9.622;2022-11-04T05:00:11;1.97;;;1.73;;
4642;SDS011;2334;48.710;9.622;2022-11-04T05:02:40;1.53;;;1.43;;
4642;SDS011;2334;48.710;9.622;2022-11-04T05:05:09;5.10;;;1.30;;
4642;SDS011;2334;48.710;9.622;2022-11-04T05:07:37;4.67;;;1.20;;
4642;SDS011;2334;48.710;9.622;2022-11-04T05:10:04;1.50;;;1.40;;
4642;SDS011;2334;48.710;9.622;2022-11-04T05:12:33;1.53;;;1.40;;
4642;SDS011;2334;48.710;9.622;2022-11-04T05:15:14;5.30;;;2.07;;
4642;SDS011;2334;48.710;9.622;2022-11-04T05:17:41;1.80;;;1.50;;
4642;SDS011;2334;48.710;9.622;2022-11-04T05:20:10;3.03;;;1.57;;
4642;SDS011;2334;48.710;9.622;2022-11-04T05:22:37;1.83;;;1.73;;
4642;SDS011;2334;48.710;9.622;2022-11-04T05:25:04;3.30;;;1.80;;
4642;SDS011;2334;48.710;9.622;2022-11-04T05:27:31;1.93;;;1.60;;
4642;SDS011;2334;48.710;9.622;2022-11-04T05:29:58;1.23;;;1.10;;
4642;SDS011;2334;48.710;9.622;2022-11-04T05:32:27;2.30;;;1.40;;
4642;SDS011;2334;48.710;9.622;2022-11-04T05:34:54;1.60;;;1.40;;
4642;SDS011;2334;48.710;9.622;2022-11-04T05:37:22;4.97;;;2.40;;
4642;SDS011;2334;48.710;9.622;2022-11-04T05:39:49;2.37;;;2.17;;
4642;SDS011;2334;48.710;9.622;2022-11-04T05:42:16;2.23;;;2.13;;
4642;SDS011;2334;48.710;9.622;2022-11-04T05:44:43;3.40;;;2.70;;
4642;SDS011;2334;48.710;9.622;2022-11-04T05:47:10;5.43;;;2.57;;
4642;SDS011;2334;48.710;9.622;2022-11-04T05:49:36;3.10;;;1.83;;
4642;SDS011;2334;48.710;9.622;2022-11-04T05:52:04;1.83;;;1.47;;
4642;SDS011;2334;48.710;9.622;2022-11-04T05:54:32;3.00;;;1.60;;
4642;SDS011;2334;48.710;9.622;2022-11-04T05:56:59;2.20;;;1.73;;
4642;SDS011;2334;48.710;9.622;2022-11-04T05:59:26;1.77;;;1.67;;
4642;SDS011;2334;48.710;9.622;2022-11-04T06:01:53;2.80;;;1.90;;
4642;SDS011;2334;48.710;9.622;2022-11-04T06:04:19;2.27;;;1.87;;
4642;SDS011;2334;48.710;9.622;2022-11-04T06:06:46;2.13;;;1.93;;
4642;SDS011;2334;48.710;9.622;2022-11-04T06:09:13;1.97;;;1.67;;
4642;SDS011;2334;48.710;9.622;2022-11-04T06:11:41;3.10;;;1.90;;
4642;SDS011;2334;48.710;9.622;2022-11-04T06:14:09;5.10;;;2.30;;
4642;SDS011;2334;48.710;9.622;2022-11-04T06:16:36;2.53;;;1.80;;
4642;SDS011;2334;48.710;9.622;2022-11-04T06:19:03;2.17;;;1.97;;
4642;SDS011;2334;48.710;9.622;2022-11-04T06:21:31;2.47;;;2.27;;
4642;SDS011;2334;48.710;9.622;2022-11-04T06:23:58;4.30;;;2.53;;
4642;SDS011;2334;48.710;9.622;2022-11-04T06:26:26;2.70;;;1.80;;
4642;SDS011;2334;48.710;9.622;2022-11-04T06:28:57;5.73;;;3.97;;
4642;SDS011;2334;48.710;9.622;2022-11-04T06:31:23;1.80;;;1.70;;
4642;SDS011;2334;48.710;9.622;2022-11-04T06:33:50;2.70;;;2.10;;
4642;SDS011;2334;48.710;9.622;2022-11-04T06:36:17;1.70;;;1.60;;
4642;SDS011;2334;48.710;9.622;2022-11-04T06:38:44;2.73;;;2.20;;
4642;SDS011;2334;48.710;9.622;2022-11-04T06:41:12;4.47;;;2.60;;
4642;SDS011;2334;48.710;9.622;2022-11-04T06:43:40;3.60;;;2.37;;
4642;SDS011;2334;48.710;9.622;2022-11-04T06:46:20;2.43;;;2.23;;
4642;SDS011;2334;48.710;9.622;2022-11-04T06:48:50;3.20;;;1.93;;
4642;SDS011;2334;48.710;9.622;2022-11-04T06:51:17;3.17;;;2.60;;
4642;SDS011;2334;48.710;9.622;2022-11-04T06:53:44;1.90;;;1.80;;
4642;SDS011;2334;48.710;9.622;2022-11-04T06:56:10;2.20;;;2.03;;
4642;SDS011;2334;48.710;9.622;2022-11-04T06:58:37;1.80;;;1.63;;
4642;SDS011;2334;48.710;9.622;2022-11-04T07:01:04;2.00;;;1.53;;
4642;SDS011;2334;48.710;9.622;2022-11-04T07:03:33;3.97;;;2.13;;
4642;SDS011;2334;48.710;9.622;2022-11-04T07:06:04;3.50;;;2.37;;
4642;SDS011;2334;48.710;9.622;2022-11-04T07:08:32;3.20;;;2.40;;
4642;SDS011;2334;48.710;9.622;2022-11-04T07:10:59;6.03;;;2.50;;
4642;SDS011;2334;48.710;9.622;2022-11-04T07:13:26;3.17;;;2.47;;
4642;SDS011;2334;48.710;9.622;2022-11-04T07:15:53;5.63;;;3.30;;
4642;SDS011;2334;48.710;9.622;2022-11-04T07:18:20;7.70;;;3.10;;
4642;SDS011;2334;48.710;9.622;2022-11-04T07:20:48;4.53;;;2.63;;
4642;SDS011;2334;48.710;9.622;2022-11-04T07:23:15;5.30;;;2.70;;
4642;SDS011;2334;48.710;9.622;2022-11-04T07:25:42;5.13;;;2.80;;
4642;SDS011;2334;48.710;9.622;2022-11-04T07:28:09;5.67;;;3.17;;
4642;SDS011;2334;48.710;9.622;2022-11-04T07:30:36;4.60;;;3.07;;
4642;SDS011;2334;48.710;9.622;2022-11-04T07:33:03;3.17;;;2.83;;
4642;SDS011;2334;48.710;9.622;2022-11-04T07:35:30;4.60;;;2.93;;
4642;SDS011;2334;48.710;9.622;2022-11-04T07:37:58;4.93;;;3.03;;
4642;SDS011;2334;48.710;9.622;2022-11-04T07:40:25;7.67;;;4.30;;
4642;SDS011;2334;48.710;9.622;2022-11-04T07:42:52;7.57;;;3.90;;
4642;SDS011;2334;48.710;9.622;2022-11-04T07:45:19;6.63;;;4.20;;
4642;SDS011;2334;48.710;9.622;2022-11-04T07:47:46;4.23;;;2.80;;
4642;SDS011;2334;48.710;9.622;2022-11-04T07:50:13;6.90;;;3.80;;
4642;SDS011;2334;48.710;9.622;2022-11-04T07:52:39;7.43;;;3.07;;
4642;SDS011;2334;48.710;9.622;2022-11-04T07:55:08;3.77;;;2.83;;
4642;SDS011;2334;48.710;9.622;2022-11-04T07:57:37;6.20;;;3.43;;
4642;SDS011;2334;48.710;9.622;2022-11-04T08:00:05;6.83;;;3.50;;
4642;SDS011;2334;48.710;9.622;2022-11-04T08:02:32;6.07;;;3.93;;
4642;SDS011;2334;48.710;9.622;2022-11-04T08:05:00;6.70;;;3.63;;
4642;SDS011;2334;48.710;9.622;2022-11-04T08:07:27;7.00;;;4.23;;
4642;SDS011;2334;48.710;9.622;2022-11-04T08:09:56;8.10;;;5.50;;
4642;SDS011;2334;48.710;9.622;2022-11-04T08:12:24;6.87;;;5.13;;
4642;SDS011;2334;48.710;9.622;2022-11-04T08:14:52;5.70;;;4.03;;
4642;SDS011;2334;48.710;9.622;2022-11-04T08:17:19;7.90;;;3.67;;
4642;SDS011;2334;48.710;9.622;2022-11-04T08:19:45;4.23;;;2.80;;
4642;SDS011;2334;48.710;9.622;2022-11-04T08:22:12;4.53;;;3.30;;
4642;SDS011;2334;48.710;9.622;2022-11-04T08:24:39;6.87;;;4.00;;
4642;SDS011;2334;48.710;9.622;2022-11-04T08:27:06;7.40;;;2.90;;
4642;SDS011;2334;48.710;9.622;2022-11-04T08:29:35;9.43;;;4.23;;
4642;SDS011;2334;48.710;9.622;2022-11-04T08:32:02;7.47;;;4.00;;
4642;SDS011;2334;48.710;9.622;2022-11-04T08:34:29;5.27;;;3.87;;
4642;SDS011;2334;48.710;9.622;2022-11-04T08:36:56;5.57;;;3.93;;
4642;SDS011;2334;48.710;9.622;2022-11-04T08:39:24;10.40;;;3.63;;
4642;SDS011;2334;48.710;9.622;2022-11-04T08:41:51;8.03;;;3.60;;
4642;SDS011;2334;48.710;9.622;2022-11-04T08:44:19;3.80;;;2.93;;
4642;SDS011;2334;48.710;9.622;2022-11-04T08:46:49;7.37;;;3.80;;
4642;SDS011;2334;48.710;9.622;2022-11-04T08:49:16;4.50;;;3.37;;
4642;SDS011;2334;48.710;9.622;2022-11-04T08:51:43;7.70;;;4.30;;
4642;SDS011;2334;48.710;9.622;2022-11-04T08:54:13;5.13;;;3.60;;
4642;SDS011;2334;48.710;9.622;2022-11-04T08:56:41;5.77;;;3.93;;
4642;SDS011;2334;48.710;9.622;2022-11-04T08:59:08;5.30;;;4.00;;
4642;SDS011;2334;48.710;9.622;2022-11-04T09:01:36;7.60;;;4.10;;
4642;SDS011;2334;48.710;9.622;2022-11-04T09:04:05;6.40;;;4.30;;
4642;SDS011;2334;48.710;9.622;2022-11-04T09:06:33;9.50;;;4.53;;
4642;SDS011;2334;48.710;9.622;2022-11-04T09:09:02;5.57;;;4.30;;
4642;SDS011;2334;48.710;9.622;2022-11-04T09:11:30;7.03;;;4.10;;
4642;SDS011;2334;48.710;9.622;2022-11-04T09:13:58;9.33;;;4.40;;
4642;SDS011;2334;48.710;9.622;2022-11-04T09:16:26;6.07;;;4.43;;
4642;SDS011;2334;48.710;9.622;2022-11-04T09:21:22;10.97;;;4.83;;
4642;SDS011;2334;48.710;9.622;2022-11-04T09:23:50;6.83;;;4.20;;
4642;SDS011;2334;48.710;9.622;2022-11-04T09:26:17;8.30;;;3.90;;
4642;SDS011;2334;48.710;9.622;2022-11-04T09:28:44;6.90;;;3.60;;
4642;SDS011;2334;48.710;9.622;2022-11-04T09:31:12;6.37;;;3.67;;
4642;SDS011;2334;48.710;9.622;2022-11-04T09:33:40;4.17;;;3.00;;
4642;SDS011;2334;48.710;9.622;2022-11-04T09:36:08;4.63;;;2.90;;
4642;SDS011;2334;48.710;9.622;2022-11-04T09:38:38;11.47;;;4.30;;
4642;SDS011;2334;48.710;9.622;2022-11-04T09:41:21;4.53;;;2.30;;
4642;SDS011;2334;48.710;9.622;2022-11-04T09:44:13;2.67;;;2.23;;
4642;SDS011;2334;48.710;9.622;2022-11-04T09:46:48;4.43;;;2.93;;
4642;SDS011;2334;48.710;9.622;2022-11-04T09:49:18;5.60;;;2.43;;
4642;SDS011;2334;48.710;9.622;2022-11-04T09:51:46;4.50;;;2.27;;
4642;SDS011;2334;48.710;9.622;2022-11-04T09:54:17;5.57;;;2.20;;
4642;SDS011;2334;48.710;9.622;2022-11-04T09:56:48;3.73;;;2.53;;
4642;SDS011;2334;48.710;9.622;2022-11-04T09:59:19;5.27;;;2.87;;
4642;SDS011;2334;48.710;9.622;2022-11-04T10:01:53;3.47;;;2.03;;
4642;SDS011;2334;48.710;9.622;2022-11-04T10:04:32;5.50;;;1.97;;
4642;SDS011;2334;48.710;9.622;2022-11-04T10:07:13;2.90;;;1.60;;
4642;SDS011;2334;48.710;9.622;2022-11-04T10:09:53;4.93;;;1.67;;
4642;SDS011;2334;48.710;9.622;2022-11-04T10:12:35;2.10;;;1.70;;
4642;SDS011;2334;48.710;9.622;2022-11-04T10:15:12;2.47;;;2.27;;
4642;SDS011;2334;48.710;9.622;2022-11-04T10:17:58;2.37;;;1.77;;
4642;SDS011;2334;48.710;9.622;2022-11-04T10:20:39;2.73;;;1.40;;
4642;SDS011;2334;48.710;9.622;2022-11-04T10:23:21;2.63;;;1.30;;
4642;SDS011;2334;48.710;9.622;2022-11-04T10:25:55;1.20;;;1.10;;
4642;SDS011;2334;48.710;9.622;2022-11-04T10:28:32;2.60;;;1.20;;
4642;SDS011;2334;48.710;9.622;2022-11-04T10:31:03;3.40;;;1.87;;
4642;SDS011;2334;48.710;9.622;2022-11-04T10:33:32;3.00;;;1.37;;
4642;SDS011;2334;48.710;9.622;2022-11-04T10:36:04;2.30;;;1.60;;
4642;SDS011;2334;48.710;9.622;2022-11-04T10:38:32;3.87;;;2.20;;
4642;SDS011;2334;48.710;9.622;2022-11-04T10:41:11;1.97;;;1.50;;
4642;SDS011;2334;48.710;9.622;2022-11-04T10:43:46;2.43;;;0.97;;
4642;SDS011;2334;48.710;9.622;2022-11-04T10:46:19;6.30;;;1.73;;
4642;SDS011;2334;48.710;9.622;2022-11-04T10:49:03;8.43;;;1.03;;
4642;SDS011;2334;48.710;9.622;2022-11-04T10:51:45;0.90;;;0.90;;
4642;SDS011;2334;48.710;9.622;2022-11-04T10:54:12;1.10;;;1.00;;
4642;SDS011;2334;48.710;9.622;2022-11-04T10:56:41;1.70;;;1.07;;
4642;SDS011;2334;48.710;9.622;2022-11-04T10:59:17;2.00;;;1.23;;
4642;SDS011;2334;48.710;9.622;2022-11-04T11:01:49;3.20;;;1.20;;
4642;SDS011;2334;48.710;9.622;2022-11-04T11:04:25;1.83;;;0.83;;
4642;SDS011;2334;48.710;9.622;2022-11-04T11:06:54;1.23;;;0.87;;
4642;SDS011;2334;48.710;9.622;2022-11-04T11:09:23;1.23;;;1.10;;
4642;SDS011;2334;48.710;9.622;2022-11-04T11:11:56;1.53;;;1.20;;
4642;SDS011;2334;48.710;9.622;2022-11-04T11:14:35;1.87;;;0.90;;
4642;SDS011;2334;48.710;9.622;2022-11-04T11:17:19;0.97;;;0.90;;
4642;SDS011;2334;48.710;9.622;2022-11-04T11:19:49;3.93;;;1.00;;
4642;SDS011;2334;48.710;9.622;2022-11-04T11:25:12;1.13;;;0.80;;
4642;SDS011;2334;48.710;9.622;2022-11-04T11:27:49;3.77;;;0.90;;
4642;SDS011;2334;48.710;9.622;2022-11-04T11:30:21;1.00;;;0.60;;
4642;SDS011;2334;48.710;9.622;2022-11-04T11:32:51;1.83;;;0.80;;
4642;SDS011;2334;48.710;9.622;2022-11-04T11:35:21;1.00;;;0.90;;
4642;SDS011;2334;48.710;9.622;2022-11-04T11:37:50;1.17;;;0.80;;
4642;SDS011;2334;48.710;9.622;2022-11-04T11:40:24;1.90;;;0.80;;
4642;SDS011;2334;48.710;9.622;2022-11-04T11:42:55;2.83;;;0.73;;
4642;SDS011;2334;48.710;9.622;2022-11-04T11:45:22;1.27;;;0.60;;
4642;SDS011;2334;48.710;9.622;2022-11-04T11:47:50;1.00;;;0.77;;
4642;SDS011;2334;48.710;9.622;2022-11-04T11:50:20;2.23;;;1.17;;
4642;SDS011;2334;48.710;9.622;2022-11-04T11:52:54;2.27;;;0.73;;
4642;SDS011;2334;48.710;9.622;2022-11-04T11:55:38;2.00;;;1.13;;
4642;SDS011;2334;48.710;9.622;2022-11-04T11:58:11;0.93;;;0.90;;
4642;SDS011;2334;48.710;9.622;2022-11-04T12:00:45;3.90;;;0.90;;
4642;SDS011;2334;48.710;9.622;2022-11-04T12:03:17;1.80;;;1.00;;
4642;SDS011;2334;48.710;9.622;2022-11-04T12:05:52;7.70;;;1.10;;
4642;SDS011;2334;48.710;9.622;2022-11-04T12:08:33;3.50;;;0.73;;
4642;SDS011;2334;48.710;9.622;2022-11-04T12:11:08;1.20;;;0.77;;
4642;SDS011;2334;48.710;9.622;2022-11-04T12:13:43;2.10;;;0.77;;
4642;SDS011;2334;48.710;9.622;2022-11-04T12:16:24;2.00;;;0.77;;
4642;SDS011;2334;48.710;9.622;2022-11-04T12:19:05;1.63;;;0.70;;
4642;SDS011;2334;48.710;9.622;2022-11-04T12:21:43;2.50;;;1.20;;
4642;SDS011;2334;48.710;9.622;2022-11-04T12:24:22;0.70;;;0.70;;
4642;SDS011;2334;48.710;9.622;2022-11-04T12:27:01;5.73;;;1.10;;
4642;SDS011;2334;48.710;9.622;2022-11-04T12:29:43;3.33;;;0.80;;
4642;SDS011;2334;48.710;9.622;2022-11-04T12:32:26;3.10;;;0.70;;
4642;SDS011;2334;48.710;9.622;2022-11-04T12:35:02;2.20;;;0.90;;
4642;SDS011;2334;48.710;9.622;2022-11-04T12:37:45;1.87;;;0.80;;
4642;SDS011;2334;48.710;9.622;2022-11-04T12:40:27;6.63;;;1.27;;
4642;SDS011;2334;48.710;9.622;2022-11-04T12:43:06;3.63;;;0.87;;
4642;SDS011;2334;48.710;9.622;2022-11-04T12:45:50;1.73;;;0.77;;
4642;SDS011;2334;48.710;9.622;2022-11-04T12:48:29;1.13;;;0.63;;
4642;SDS011;2334;48.710;9.622;2022-11-04T12:51:06;1.87;;;0.90;;
4642;SDS011;2334;48.710;9.622;2022-11-04T12:53:43;0.80;;;0.63;;
4642;SDS011;2334;48.710;9.622;2022-11-04T12:56:30;3.30;;;1.33;;
4642;SDS011;2334;48.710;9.622;2022-11-04T13:02:00;2.30;;;0.90;;
4642;SDS011;2334;48.710;9.622;2022-11-04T13:04:38;2.60;;;0.90;;
4642;SDS011;2334;48.710;9.622;2022-11-04T13:07:11;1.03;;;0.90;;
4642;SDS011;2334;48.710;9.622;2022-11-04T13:09:45;2.17;;;0.83;;
4642;SDS011;2334;48.710;9.622;2022-11-04T13:12:18;2.00;;;1.03;;
4642;SDS011;2334;48.710;9.622;2022-11-04T13:14:49;3.40;;;0.77;;
4642;SDS011;2334;48.710;9.622;2022-11-04T13:17:21;1.87;;;0.90;;
4642;SDS011;2334;48.710;9.622;2022-11-04T13:19:52;4.37;;;1.47;;
4642;SDS011;2334;48.710;9.622;2022-11-04T13:22:21;0.90;;;0.90;;
4642;SDS011;2334;48.710;9.622;2022-11-04T13:24:51;2.93;;;1.27;;
4642;SDS011;2334;48.710;9.622;2022-11-04T13:27:22;6.50;;;1.30;;
4642;SDS011;2334;48.710;9.622;2022-11-04T13:29:55;3.70;;;1.30;;
4642;SDS011;2334;48.710;9.622;2022-11-04T13:32:32;14.07;;;1.97;;
4642;SDS011;2334;48.710;9.622;2022-11-04T13:35:04;4.83;;;1.00;;
4642;SDS011;2334;48.710;9.622;2022-11-04T13:37:38;3.90;;;2.33;;
4642;SDS011;2334;48.710;9.622;2022-11-04T13:40:11;0.73;;;0.60;;
4642;SDS011;2334;48.710;9.622;2022-11-04T13:45:48;4.90;;;1.03;;
4642;SDS011;2334;48.710;9.622;2022-11-04T13:48:20;2.67;;;1.00;;
4642;SDS011;2334;48.710;9.622;2022-11-04T13:50:54;9.37;;;1.47;;
4642;SDS011;2334;48.710;9.622;2022-11-04T13:53:38;3.40;;;1.07;;
4642;SDS011;2334;48.710;9.622;2022-11-04T13:56:07;3.67;;;1.20;;
4642;SDS011;2334;48.710;9.622;2022-11-04T13:58:36;17.47;;;2.57;;
4642;SDS011;2334;48.710;9.622;2022-11-04T14:01:11;3.67;;;1.47;;
4642;SDS011;2334;48.710;9.622;2022-11-04T14:03:52;3.87;;;2.00;;
4642;SDS011;2334;48.710;9.622;2022-11-04T14:06:46;3.23;;;1.00;;
4642;SDS011;2334;48.710;9.622;2022-11-04T14:09:23;2.20;;;0.90;;
4642;SDS011;2334;48.710;9.622;2022-11-04T14:15:09;5.33;;;0.90;;
4642;SDS011;2334;48.710;9.622;2022-11-04T14:17:57;8.37;;;1.10;;
4642;SDS011;2334;48.710;9.622;2022-11-04T14:20:27;1.00;;;0.90;;
4642;SDS011;2334;48.710;9.622;2022-11-04T14:22:56;1.03;;;0.80;;
4642;SDS011;2334;48.710;9.622;2022-11-04T14:25:26;1.90;;;0.90;;
4642;SDS011;2334;48.710;9.622;2022-11-04T14:27:55;4.67;;;0.90;;
4642;SDS011;2334;48.710;9.622;2022-11-04T14:30:40;3.50;;;1.90;;
4642;SDS011;2334;48.710;9.622;2022-11-04T14:33:22;7.37;;;1.63;;
4642;SDS011;2334;48.710;9.622;2022-11-04T14:38:54;2.30;;;1.00;;
4642;SDS011;2334;48.710;9.622;2022-11-04T14:41:30;4.63;;;0.97;;
4642;SDS011;2334;48.710;9.622;2022-11-04T14:44:18;4.73;;;1.10;;
4642;SDS011;2334;48.710;9.622;2022-11-04T14:46:50;1.80;;;0.97;;
4642;SDS011;2334;48.710;9.622;2022-11-04T14:49:27;3.90;;;0.97;;
4642;SDS011;2334;48.710;9.622;2022-11-04T14:52:02;2.90;;;0.80;;
4642;SDS011;2334;48.710;9.622;2022-11-04T14:54:31;2.77;;;1.20;;
4642;SDS011;2334;48.710;9.622;2022-11-04T14:57:06;1.80;;;0.97;;
4642;SDS011;2334;48.710;9.622;2022-11-04T14:59:39;2.10;;;1.20;;
4642;SDS011;2334;48.710;9.622;2022-11-04T15:02:09;0.97;;;0.70;;
4642;SDS011;2334;48.710;9.622;2022-11-04T15:04:44;3.73;;;0.80;;
4642;SDS011;2334;48.710;9.622;2022-11-04T15:07:23;4.60;;;0.90;;
4642;SDS011;2334;48.710;9.622;2022-11-04T15:09:52;1.53;;;0.80;;
4642;SDS011;2334;48.710;9.622;2022-11-04T15:12:19;2.10;;;0.93;;
4642;SDS011;2334;48.710;9.622;2022-11-04T15:17:52;3.00;;;1.80;;
4642;SDS011;2334;48.710;9.622;2022-11-04T15:20:21;1.50;;;1.17;;
4642;SDS011;2334;48.710;9.622;2022-11-04T15:22:51;1.80;;;1.00;;
4642;SDS011;2334;48.710;9.622;2022-11-04T15:25:19;1.80;;;1.30;;
4642;SDS011;2334;48.710;9.622;2022-11-04T15:27:47;2.70;;;1.13;;
4642;SDS011;2334;48.710;9.622;2022-11-04T15:30:17;1.27;;;1.13;;
4642;SDS011;2334;48.710;9.622;2022-11-04T15:32:53;2.90;;;1.50;;
4642;SDS011;2334;48.710;9.622;2022-11-04T15:35:20;1.03;;;0.87;;
4642;SDS011;2334;48.710;9.622;2022-11-04T15:37:48;0.70;;;0.70;;
4642;SDS011;2334;48.710;9.622;2022-11-04T15:40:19;2.20;;;1.03;;
4642;SDS011;2334;48.710;9.622;2022-11-04T15:42:47;3.10;;;1.30;;
4642;SDS011;2334;48.710;9.622;2022-11-04T15:45:24;1.40;;;1.10;;
4642;SDS011;2334;48.710;9.622;2022-11-04T15:50:56;2.13;;;1.23;;
4642;SDS011;2334;48.710;9.622;2022-11-04T15:53:46;4.23;;;1.17;;
4642;SDS011;2334;48.710;9.622;2022-11-04T15:56:17;3.63;;;1.37;;
4642;SDS011;2334;48.710;9.622;2022-11-04T15:58:46;2.50;;;1.40;;
4642;SDS011;2334;48.710;9.622;2022-11-04T16:01:14;1.93;;;1.47;;
4642;SDS011;2334;48.710;9.622;2022-11-04T16:03:46;4.10;;;1.50;;
4642;SDS011;2334;48.710;9.622;2022-11-04T16:06:15;4.60;;;1.90;;
4642;SDS011;2334;48.710;9.622;2022-11-04T16:08:47;4.67;;;2.27;;